sensor_id;sensor_type;location;lat;lon;timestamp;pressure;altitude;pressure_sealevel;temperature;humidity
77871;BME280;67067;46.850;7.578;2023-05-10T00:00:18;95038.69;;;11.71;54.27
77871;BME280;67067;46.850;7.578;2023-05-10T00:01:19;95031.56;;;11.76;53.77
77871;BME280;67067;46.850;7.578;2023-05-10T00:02:21;95029.97;;;11.75;53.41
77871;BME280;67067;46.850;7.578;2023-05-10T00:03:23;95025.44;;;11.76;53.77
77871;BME280;67067;46.850;7.578;2023-05-10T00:04:25;95029.69;;;11.77;53.73
77871;BME280;67067;46.850;7.578;2023-05-10T00:05:31;95030.22;;;11.79;53.82
77871;BME280;67067;46.850;7.578;2023-05-10T00:06:35;95023.59;;;11.81;53.69
77871;BME280;67067;46.850;7.578;2023-05-10T00:07:36;95021.47;;;11.73;53.93
77871;BME280;67067;46.850;7.578;2023-05-10T00:08:38;95027.03;;;11.72;53.71
77871;BME280;67067;46.850;7.578;2023-05-10T00:09:39;95025.16;;;11.72;53.85
77871;BME280;67067;46.850;7.578;2023-05-10T00:10:41;95025.44;;;11.76;53.94
77871;BME280;67067;46.850;7.578;2023-05-10T00:11:43;95018.84;;;11.78;53.76
77871;BME280;67067;46.850;7.578;2023-05-10T00:12:44;95018.03;;;11.83;53.69
77871;BME280;67067;46.850;7.578;2023-05-10T00:13:46;95022.28;;;11.79;53.47
77871;BME280;67067;46.850;7.578;2023-05-10T00:14:47;95020.69;;;11.78;53.78
77871;BME280;67067;46.850;7.578;2023-05-10T00:15:49;95018.56;;;11.75;54.06
77871;BME280;67067;46.850;7.578;2023-05-10T00:16:50;95017.50;;;11.76;54.08
77871;BME280;67067;46.850;7.578;2023-05-10T00:17:52;95020.97;;;11.76;54.00
77871;BME280;67067;46.850;7.578;2023-05-10T00:18:54;95018.56;;;11.75;53.83
77871;BME280;67067;46.850;7.578;2023-05-10T00:19:55;95019.38;;;11.75;53.94
77871;BME280;67067;46.850;7.578;2023-05-10T00:20:59;95015.66;;;11.76;54.15
77871;BME280;67067;46.850;7.578;2023-05-10T00:22:01;95013.00;;;11.76;53.86
77871;BME280;67067;46.850;7.578;2023-05-10T00:23:03;95016.44;;;11.77;53.83
77871;BME280;67067;46.850;7.578;2023-05-10T00:24:04;95016.19;;;11.78;53.64
77871;BME280;67067;46.850;7.578;2023-05-10T00:25:06;95014.84;;;11.76;53.09
77871;BME280;67067;46.850;7.578;2023-05-10T00:26:08;95020.16;;;11.76;52.99
77871;BME280;67067;46.850;7.578;2023-05-10T00:27:11;95020.69;;;11.78;53.17
77871;BME280;67067;46.850;7.578;2023-05-10T00:28:13;95023.84;;;11.80;53.09
77871;BME280;67067;46.850;7.578;2023-05-10T00:29:15;95026.25;;;11.81;52.97
77871;BME280;67067;46.850;7.578;2023-05-10T00:30:16;95024.91;;;11.79;52.59
77871;BME280;67067;46.850;7.578;2023-05-10T00:31:20;95029.44;;;11.78;52.67
77871;BME280;67067;46.850;7.578;2023-05-10T00:32:22;95028.09;;;11.81;52.72
77871;BME280;67067;46.850;7.578;2023-05-10T00:33:26;95023.59;;;11.81;52.77
77871;BME280;67067;46.850;7.578;2023-05-10T00:34:28;95023.84;;;11.59;52.30
77871;BME280;67067;46.850;7.578;2023-05-10T00:35:29;95023.84;;;11.69;52.61
77871;BME280;67067;46.850;7.578;2023-05-10T00:36:36;95018.56;;;11.75;52.85
77871;BME280;67067;46.850;7.578;2023-05-10T00:37:37;95022.81;;;11.76;52.92
77871;BME280;67067;46.850;7.578;2023-05-10T00:38:39;95012.47;;;11.74;53.10
77871;BME280;67067;46.850;7.578;2023-05-10T00:39:41;95024.91;;;11.79;52.90
77871;BME280;67067;46.850;7.578;2023-05-10T00:40:43;95012.72;;;11.78;52.87
77871;BME280;67067;46.850;7.578;2023-05-10T00:41:52;95022.03;;;11.75;52.73
77871;BME280;67067;46.850;7.578;2023-05-10T00:42:54;95011.66;;;11.74;52.88
77871;BME280;67067;46.850;7.578;2023-05-10T00:43:55;95015.91;;;11.75;53.07
77871;BME280;67067;46.850;7.578;2023-05-10T00:44:57;95016.72;;;11.75;53.02
77871;BME280;67067;46.850;7.578;2023-05-10T00:45:59;95010.06;;;11.73;53.20
77871;BME280;67067;46.850;7.578;2023-05-10T00:47:04;95021.22;;;11.75;53.42
77871;BME280;67067;46.850;7.578;2023-05-10T00:48:05;95010.06;;;11.73;53.34
77871;BME280;67067;46.850;7.578;2023-05-10T00:49:07;95010.84;;;11.68;53.55
77871;BME280;67067;46.850;7.578;2023-05-10T00:50:10;95016.16;;;11.63;54.30
77871;BME280;67067;46.850;7.578;2023-05-10T00:51:13;95016.94;;;11.58;54.15
77871;BME280;67067;46.850;7.578;2023-05-10T00:52:16;95011.66;;;11.53;54.35
77871;BME280;67067;46.850;7.578;2023-05-10T00:53:18;95016.38;;;11.46;54.99
77871;BME280;67067;46.850;7.578;2023-05-10T00:54:20;95019.03;;;11.46;54.90
77871;BME280;67067;46.850;7.578;2023-05-10T00:55:22;95023.78;;;11.44;54.98
77871;BME280;67067;46.850;7.578;2023-05-10T00:56:23;95017.44;;;11.39;55.22
77871;BME280;67067;46.850;7.578;2023-05-10T00:57:26;95022.72;;;11.39;54.97
77871;BME280;67067;46.850;7.578;2023-05-10T00:58:27;95027.47;;;11.37;55.02
77871;BME280;67067;46.850;7.578;2023-05-10T00:59:29;95029.31;;;11.37;55.24
77871;BME280;67067;46.850;7.578;2023-05-10T01:00:32;95028.50;;;11.36;55.20
77871;BME280;67067;46.850;7.578;2023-05-10T01:01:36;95026.94;;;11.35;55.29
77871;BME280;67067;46.850;7.578;2023-05-10T01:02:40;95031.16;;;11.36;55.40
77871;BME280;67067;46.850;7.578;2023-05-10T01:03:41;95026.16;;;11.35;55.28
77871;BME280;67067;46.850;7.578;2023-05-10T01:04:46;95028.25;;;11.33;55.43
77871;BME280;67067;46.850;7.578;2023-05-10T01:05:48;95026.38;;;11.28;56.09
77871;BME280;67067;46.850;7.578;2023-05-10T01:06:52;95034.09;;;11.30;55.55
77871;BME280;67067;46.850;7.578;2023-05-10T01:07:54;95034.09;;;11.30;55.57
77871;BME280;67067;46.850;7.578;2023-05-10T01:08:57;95032.75;;;11.32;55.36
77871;BME280;67067;46.850;7.578;2023-05-10T01:09:59;95035.94;;;11.34;55.19
77871;BME280;67067;46.850;7.578;2023-05-10T01:11:01;95032.50;;;11.34;55.35
77871;BME280;67067;46.850;7.578;2023-05-10T01:12:03;95039.94;;;11.37;55.33
77871;BME280;67067;46.850;7.578;2023-05-10T01:13:08;95039.94;;;11.37;55.13
77871;BME280;67067;46.850;7.578;2023-05-10T01:14:13;95030.63;;;11.34;55.77
77871;BME280;67067;46.850;7.578;2023-05-10T01:15:18;95029.84;;;11.34;55.48
77871;BME280;67067;46.850;7.578;2023-05-10T01:16:21;95028.25;;;11.33;55.37
77871;BME280;67067;46.850;7.578;2023-05-10T01:17:23;95024.78;;;11.27;55.73
77871;BME280;67067;46.850;7.578;2023-05-10T01:18:25;95033.00;;;11.25;55.53
77871;BME280;67067;46.850;7.578;2023-05-10T01:19:28;95026.13;;;11.24;55.76
77871;BME280;67067;46.850;7.578;2023-05-10T01:20:32;95031.13;;;11.26;55.85
77871;BME280;67067;46.850;7.578;2023-05-10T01:21:38;95027.94;;;11.19;56.34
77871;BME280;67067;46.850;7.578;2023-05-10T01:24:21;95035.13;;;11.23;56.14
77871;BME280;67067;46.850;7.578;2023-05-10T01:34:10;95029.72;;;11.03;57.05
77871;BME280;67067;46.850;7.578;2023-05-10T01:35:17;95034.50;;;11.01;57.14
77871;BME280;67067;46.850;7.578;2023-05-10T01:37:50;95035.84;;;11.03;57.05
77871;BME280;67067;46.850;7.578;2023-05-10T01:38:51;95036.13;;;11.07;56.87
77871;BME280;67067;46.850;7.578;2023-05-10T01:39:55;95032.91;;;11.05;57.21
77871;BME280;67067;46.850;7.578;2023-05-10T01:42:38;95029.50;;;11.09;56.84
77871;BME280;67067;46.850;7.578;2023-05-10T01:45:02;95030.84;;;11.07;56.76
77871;BME280;67067;46.850;7.578;2023-05-10T01:46:14;95032.44;;;11.08;56.78
77871;BME280;67067;46.850;7.578;2023-05-10T01:47:23;95028.97;;;11.07;56.75
77871;BME280;67067;46.850;7.578;2023-05-10T01:48:27;95034.81;;;11.09;56.60
77871;BME280;67067;46.850;7.578;2023-05-10T01:49:31;95034.50;;;11.06;56.85
77871;BME280;67067;46.850;7.578;2023-05-10T01:50:34;95036.38;;;11.05;56.92
77871;BME280;67067;46.850;7.578;2023-05-10T01:51:42;95037.97;;;11.06;56.55
77871;BME280;67067;46.850;7.578;2023-05-10T01:52:47;95034.50;;;11.06;56.70
77871;BME280;67067;46.850;7.578;2023-05-10T01:53:54;95030.28;;;11.05;56.60
77871;BME280;67067;46.850;7.578;2023-05-10T01:55:14;95030.03;;;11.06;56.88
77871;BME280;67067;46.850;7.578;2023-05-10T01:56:19;95029.22;;;11.06;56.99
77871;BME280;67067;46.850;7.578;2023-05-10T01:57:25;95030.56;;;11.08;56.85
77871;BME280;67067;46.850;7.578;2023-05-10T01:58:30;95040.09;;;11.04;56.87
77871;BME280;67067;46.850;7.578;2023-05-10T01:59:36;95032.66;;;11.01;56.92
77871;BME280;67067;46.850;7.578;2023-05-10T02:00:39;95035.03;;;11.03;56.83
77871;BME280;67067;46.850;7.578;2023-05-10T02:01:43;95030.25;;;11.00;57.13
77871;BME280;67067;46.850;7.578;2023-05-10T02:02:47;95033.16;;;10.98;57.17
77871;BME280;67067;46.850;7.578;2023-05-10T02:03:51;95029.69;;;10.92;57.40
77871;BME280;67067;46.850;7.578;2023-05-10T02:04:53;95029.16;;;10.90;57.43
77871;BME280;67067;46.850;7.578;2023-05-10T02:05:56;95035.50;;;10.89;57.50
77871;BME280;67067;46.850;7.578;2023-05-10T02:06:58;95032.84;;;10.89;57.32
77871;BME280;67067;46.850;7.578;2023-05-10T02:08:00;95033.66;;;10.90;57.13
77871;BME280;67067;46.850;7.578;2023-05-10T02:09:05;95032.63;;;10.91;57.27
77871;BME280;67067;46.850;7.578;2023-05-10T02:10:07;95033.41;;;10.91;57.21
77871;BME280;67067;46.850;7.578;2023-05-10T02:11:09;95031.56;;;10.92;57.51
77871;BME280;67067;46.850;7.578;2023-05-10T02:12:13;95028.91;;;10.92;57.60
77871;BME280;67067;46.850;7.578;2023-05-10T02:13:16;95029.97;;;10.91;57.69
77871;BME280;67067;46.850;7.578;2023-05-10T02:14:19;95026.81;;;10.94;57.45
77871;BME280;67067;46.850;7.578;2023-05-10T02:15:22;95025.72;;;10.90;57.81
77871;BME280;67067;46.850;7.578;2023-05-10T02:16:26;95021.22;;;10.90;57.67
77871;BME280;67067;46.850;7.578;2023-05-10T02:17:28;95024.69;;;10.91;57.35
77871;BME280;67067;46.850;7.578;2023-05-10T02:18:31;95022.00;;;10.86;57.51
77871;BME280;67067;46.850;7.578;2023-05-10T02:19:40;95020.69;;;10.88;57.31
77871;BME280;67067;46.850;7.578;2023-05-10T02:20:43;95026.78;;;10.89;57.37
77871;BME280;67067;46.850;7.578;2023-05-10T02:21:46;95029.44;;;10.89;57.31
77871;BME280;67067;46.850;7.578;2023-05-10T02:22:49;95026.50;;;10.90;57.03
77871;BME280;67067;46.850;7.578;2023-05-10T02:23:52;95018.84;;;10.89;57.23
77871;BME280;67067;46.850;7.578;2023-05-10T02:24:54;95022.03;;;10.91;56.94
77871;BME280;67067;46.850;7.578;2023-05-10T02:25:57;95019.91;;;10.93;57.03
77871;BME280;67067;46.850;7.578;2023-05-10T02:27:00;95022.28;;;10.94;56.91
77871;BME280;67067;46.850;7.578;2023-05-10T02:28:04;95017.81;;;10.95;56.75
77871;BME280;67067;46.850;7.578;2023-05-10T02:29:06;95009.31;;;10.93;56.67
77871;BME280;67067;46.850;7.578;2023-05-10T02:30:09;95016.22;;;10.94;56.84
77871;BME280;67067;46.850;7.578;2023-05-10T02:31:11;95009.88;;;10.95;56.95
77871;BME280;67067;46.850;7.578;2023-05-10T02:32:13;95015.16;;;10.95;57.07
77871;BME280;67067;46.850;7.578;2023-05-10T02:33:15;95006.41;;;10.94;57.17
77871;BME280;67067;46.850;7.578;2023-05-10T02:34:19;95017.00;;;10.94;57.10
77871;BME280;67067;46.850;7.578;2023-05-10T02:35:22;95011.44;;;10.96;57.33
77871;BME280;67067;46.850;7.578;2023-05-10T02:36:24;95007.75;;;10.97;56.83
77871;BME280;67067;46.850;7.578;2023-05-10T02:37:28;95010.66;;;11.01;56.85
77871;BME280;67067;46.850;7.578;2023-05-10T02:38:30;95018.34;;;11.02;56.73
77871;BME280;67067;46.850;7.578;2023-05-10T02:39:32;95016.25;;;11.04;56.70
77871;BME280;67067;46.850;7.578;2023-05-10T02:40:34;95019.19;;;11.08;56.80
77871;BME280;67067;46.850;7.578;2023-05-10T02:41:36;95015.72;;;11.07;56.78
77871;BME280;67067;46.850;7.578;2023-05-10T02:42:38;95015.72;;;11.07;56.73
77871;BME280;67067;46.850;7.578;2023-05-10T02:43:45;95019.44;;;11.06;56.64
77871;BME280;67067;46.850;7.578;2023-05-10T02:44:52;95019.19;;;11.08;56.65
77871;BME280;67067;46.850;7.578;2023-05-10T02:45:54;95015.19;;;11.05;56.82
77871;BME280;67067;46.850;7.578;2023-05-10T02:46:56;95020.50;;;11.05;56.85
77871;BME280;67067;46.850;7.578;2023-05-10T02:47:58;95017.31;;;11.03;56.71
77871;BME280;67067;46.850;7.578;2023-05-10T02:49:00;95020.72;;;11.04;56.79
77871;BME280;67067;46.850;7.578;2023-05-10T02:50:02;95020.72;;;10.99;57.01
77871;BME280;67067;46.850;7.578;2023-05-10T02:51:07;95023.09;;;10.95;57.09
77871;BME280;67067;46.850;7.578;2023-05-10T02:52:09;95022.03;;;10.91;57.42
77871;BME280;67067;46.850;7.578;2023-05-10T02:53:15;95026.25;;;10.87;57.42
77871;BME280;67067;46.850;7.578;2023-05-10T02:54:21;95019.34;;;10.86;57.21
77871;BME280;67067;46.850;7.578;2023-05-10T02:55:31;95021.19;;;10.85;57.33
77871;BME280;67067;46.850;7.578;2023-05-10T02:56:34;95020.94;;;10.87;57.12
77871;BME280;67067;46.850;7.578;2023-05-10T02:57:38;95028.91;;;10.87;57.10
77871;BME280;67067;46.850;7.578;2023-05-10T02:58:42;95019.34;;;10.86;57.09
77871;BME280;67067;46.850;7.578;2023-05-10T02:59:43;95025.72;;;10.85;57.25
77871;BME280;67067;46.850;7.578;2023-05-10T03:00:48;95025.16;;;10.82;57.21
77871;BME280;67067;46.850;7.578;2023-05-10T03:01:50;95023.56;;;10.81;57.25
77871;BME280;67067;46.850;7.578;2023-05-10T03:02:52;95030.97;;;10.79;57.45
77871;BME280;67067;46.850;7.578;2023-05-10T03:03:54;95036.28;;;10.79;57.67
77871;BME280;67067;46.850;7.578;2023-05-10T03:04:55;95036.25;;;10.74;57.72
77871;BME280;67067;46.850;7.578;2023-05-10T03:05:59;95035.97;;;10.71;57.71
77871;BME280;67067;46.850;7.578;2023-05-10T03:07:02;95044.44;;;10.73;57.78
77871;BME280;67067;46.850;7.578;2023-05-10T03:08:03;95041.78;;;10.73;57.76
77871;BME280;67067;46.850;7.578;2023-05-10T03:09:06;95044.19;;;10.74;57.89
77871;BME280;67067;46.850;7.578;2023-05-10T03:10:10;95052.69;;;10.76;57.56
77871;BME280;67067;46.850;7.578;2023-05-10T03:16:45;95066.16;;;10.75;57.85
77871;BME280;67067;46.850;7.578;2023-05-10T03:18:51;95066.69;;;10.77;57.81
77871;BME280;67067;46.850;7.578;2023-05-10T03:19:26;95067.75;;;10.76;57.49
77871;BME280;67067;46.850;7.578;2023-05-10T03:20:33;95063.81;;;10.84;56.41
77871;BME280;67067;46.850;7.578;2023-05-10T03:21:36;95064.59;;;10.79;55.76
77871;BME280;67067;46.850;7.578;2023-05-10T03:22:47;95070.94;;;10.78;55.94
77871;BME280;67067;46.850;7.578;2023-05-10T03:23:58;95066.44;;;10.78;55.60
77871;BME280;67067;46.850;7.578;2023-05-10T03:25:00;95067.78;;;10.81;55.76
77871;BME280;67067;46.850;7.578;2023-05-10T03:26:05;95061.88;;;10.68;55.64
77871;BME280;67067;46.850;7.578;2023-05-10T03:27:07;95062.16;;;10.72;55.90
77871;BME280;67067;46.850;7.578;2023-05-10T03:28:09;95061.38;;;10.72;56.21
77871;BME280;67067;46.850;7.578;2023-05-10T03:29:12;95068.28;;;10.78;55.74
77871;BME280;67067;46.850;7.578;2023-05-10T03:30:15;95061.94;;;10.79;55.55
77871;BME280;67067;46.850;7.578;2023-05-10T03:31:18;95057.19;;;10.81;55.44
77871;BME280;67067;46.850;7.578;2023-05-10T03:32:22;95065.94;;;10.81;55.32
77871;BME280;67067;46.850;7.578;2023-05-10T03:33:23;95060.38;;;10.83;55.39
77871;BME280;67067;46.850;7.578;2023-05-10T03:34:25;95063.31;;;10.87;55.48
77871;BME280;67067;46.850;7.578;2023-05-10T03:35:27;95065.97;;;10.87;55.20
77871;BME280;67067;46.850;7.578;2023-05-10T03:36:28;95059.59;;;10.88;55.29
77871;BME280;67067;46.850;7.578;2023-05-10T03:37:33;95061.19;;;10.89;55.45
77871;BME280;67067;46.850;7.578;2023-05-10T03:38:35;95068.09;;;10.90;55.70
77871;BME280;67067;46.850;7.578;2023-05-10T03:39:37;95061.75;;;10.91;55.36
77871;BME280;67067;46.850;7.578;2023-05-10T03:40:41;95065.16;;;10.91;55.31
77871;BME280;67067;46.850;7.578;2023-05-10T03:41:45;95068.34;;;10.93;55.48
77871;BME280;67067;46.850;7.578;2023-05-10T03:42:46;95063.56;;;10.90;55.38
77871;BME280;67067;46.850;7.578;2023-05-10T03:43:48;95061.97;;;10.89;55.66
77871;BME280;67067;46.850;7.578;2023-05-10T03:44:49;95058.81;;;10.87;55.80
77871;BME280;67067;46.850;7.578;2023-05-10T03:45:51;95060.56;;;10.71;55.73
77871;BME280;67067;46.850;7.578;2023-05-10T03:46:53;95058.22;;;10.80;55.67
77871;BME280;67067;46.850;7.578;2023-05-10T03:47:54;95065.94;;;10.81;55.90
77871;BME280;67067;46.850;7.578;2023-05-10T03:48:56;95067.78;;;10.81;55.53
77871;BME280;67067;46.850;7.578;2023-05-10T03:50:00;95060.63;;;10.81;55.68
77871;BME280;67067;46.850;7.578;2023-05-10T03:51:01;95059.59;;;10.82;55.45
77871;BME280;67067;46.850;7.578;2023-05-10T03:52:03;95062.22;;;10.82;55.44
77871;BME280;67067;46.850;7.578;2023-05-10T03:53:06;95054.03;;;10.84;55.37
77871;BME280;67067;46.850;7.578;2023-05-10T03:54:08;95057.47;;;10.85;55.60
77871;BME280;67067;46.850;7.578;2023-05-10T03:55:09;95060.91;;;10.85;55.72
77871;BME280;67067;46.850;7.578;2023-05-10T03:56:13;95061.72;;;10.86;55.54
77871;BME280;67067;46.850;7.578;2023-05-10T03:57:15;95051.66;;;10.82;55.64
77871;BME280;67067;46.850;7.578;2023-05-10T03:58:16;95055.88;;;10.84;55.46
77871;BME280;67067;46.850;7.578;2023-05-10T03:59:18;95054.84;;;10.85;55.33
77871;BME280;67067;46.850;7.578;2023-05-10T04:00:20;95050.59;;;10.84;55.39
77871;BME280;67067;46.850;7.578;2023-05-10T04:01:24;95050.56;;;10.78;55.40
77871;BME280;67067;46.850;7.578;2023-05-10T04:02:26;95048.97;;;10.77;54.66
77871;BME280;67067;46.850;7.578;2023-05-10T04:03:28;95044.47;;;10.78;54.78
77871;BME280;67067;46.850;7.578;2023-05-10T04:04:29;95048.16;;;10.77;54.53
77871;BME280;67067;46.850;7.578;2023-05-10T04:05:32;95053.22;;;10.78;54.81
77871;BME280;67067;46.850;7.578;2023-05-10T04:06:33;95055.84;;;10.78;54.73
77871;BME280;67067;46.850;7.578;2023-05-10T04:07:35;95046.84;;;10.74;54.84
77871;BME280;67067;46.850;7.578;2023-05-10T04:08:37;95057.97;;;10.76;54.97
77871;BME280;67067;46.850;7.578;2023-05-10T04:09:40;95056.09;;;10.77;54.94
77871;BME280;67067;46.850;7.578;2023-05-10T04:10:42;95054.25;;;10.77;54.90
77871;BME280;67067;46.850;7.578;2023-05-10T04:11:43;95047.09;;;10.78;54.74
77871;BME280;67067;46.850;7.578;2023-05-10T04:12:45;95053.75;;;10.80;54.44
77871;BME280;67067;46.850;7.578;2023-05-10T04:13:46;95049.53;;;10.85;53.78
77871;BME280;67067;46.850;7.578;2023-05-10T04:14:48;95046.06;;;10.79;54.11
77871;BME280;67067;46.850;7.578;2023-05-10T04:15:49;95043.69;;;10.77;54.15
77871;BME280;67067;46.850;7.578;2023-05-10T04:16:51;95047.38;;;10.76;54.03
77871;BME280;67067;46.850;7.578;2023-05-10T04:17:52;95033.59;;;10.74;54.51
77871;BME280;67067;46.850;7.578;2023-05-10T04:18:54;95045.25;;;10.73;54.47
77871;BME280;67067;46.850;7.578;2023-05-10T04:19:56;95048.91;;;10.72;54.67
77871;BME280;67067;46.850;7.578;2023-05-10T04:20:58;95047.38;;;10.76;54.69
77871;BME280;67067;46.850;7.578;2023-05-10T04:22:02;95044.19;;;10.74;54.79
77871;BME280;67067;46.850;7.578;2023-05-10T04:23:03;95038.09;;;10.74;54.91
77871;BME280;67067;46.850;7.578;2023-05-10T04:24:07;95045.19;;;10.68;55.28
77871;BME280;67067;46.850;7.578;2023-05-10T04:25:09;95046.28;;;10.72;54.98
77871;BME280;67067;46.850;7.578;2023-05-10T04:26:10;95044.97;;;10.75;54.96
77871;BME280;67067;46.850;7.578;2023-05-10T04:27:14;95046.78;;;10.69;54.77
77871;BME280;67067;46.850;7.578;2023-05-10T04:28:15;95044.19;;;10.74;54.73
77871;BME280;67067;46.850;7.578;2023-05-10T04:29:19;95046.00;;;10.68;54.57
77871;BME280;67067;46.850;7.578;2023-05-10T04:32:44;95047.03;;;10.62;53.70
77871;BME280;67067;46.850;7.578;2023-05-10T04:33:46;95050.44;;;10.58;53.99
77871;BME280;67067;46.850;7.578;2023-05-10T04:34:50;95048.06;;;10.56;54.26
77871;BME280;67067;46.850;7.578;2023-05-10T04:35:54;95049.91;;;10.61;53.78
77871;BME280;67067;46.850;7.578;2023-05-10T04:36:56;95045.66;;;10.55;53.99
77871;BME280;67067;46.850;7.578;2023-05-10T04:37:57;95044.63;;;10.61;53.67
77871;BME280;67067;46.850;7.578;2023-05-10T04:38:59;95037.72;;;10.55;53.68
77871;BME280;67067;46.850;7.578;2023-05-10T04:40:01;95047.50;;;10.54;53.56
77871;BME280;67067;46.850;7.578;2023-05-10T04:41:08;95049.34;;;10.53;53.40
77871;BME280;67067;46.850;7.578;2023-05-10T04:42:10;95052.53;;;10.56;53.85
77871;BME280;67067;46.850;7.578;2023-05-10T04:43:12;95055.16;;;10.50;53.68
77871;BME280;67067;46.850;7.578;2023-05-10T04:44:18;95057.56;;;10.52;53.66
77871;BME280;67067;46.850;7.578;2023-05-10T04:45:20;95060.22;;;10.52;53.80
77871;BME280;67067;46.850;7.578;2023-05-10T04:46:21;95053.84;;;10.53;53.34
77871;BME280;67067;46.850;7.578;2023-05-10T04:47:23;95056.22;;;10.55;53.49
77871;BME280;67067;46.850;7.578;2023-05-10T04:48:25;95058.34;;;10.52;53.42
77871;BME280;67067;46.850;7.578;2023-05-10T04:49:26;95059.94;;;10.53;53.42
77871;BME280;67067;46.850;7.578;2023-05-10T04:50:28;95064.69;;;10.51;53.62
77871;BME280;67067;46.850;7.578;2023-05-10T04:51:30;95059.66;;;10.50;53.55
77871;BME280;67067;46.850;7.578;2023-05-10T04:52:32;95064.44;;;10.53;53.52
77871;BME280;67067;46.850;7.578;2023-05-10T04:53:34;95067.88;;;10.53;53.59
77871;BME280;67067;46.850;7.578;2023-05-10T04:54:35;95066.81;;;10.55;53.58
77871;BME280;67067;46.850;7.578;2023-05-10T04:55:37;95069.44;;;10.49;53.78
77871;BME280;67067;46.850;7.578;2023-05-10T04:56:38;95067.34;;;10.51;53.67
77871;BME280;67067;46.850;7.578;2023-05-10T04:57:40;95066.31;;;10.58;53.23
77871;BME280;67067;46.850;7.578;2023-05-10T04:58:41;95070.00;;;10.57;52.98
77871;BME280;67067;46.850;7.578;2023-05-10T04:59:43;95071.38;;;10.59;52.95
77871;BME280;67067;46.850;7.578;2023-05-10T05:00:44;95071.59;;;10.58;53.14
77871;BME280;67067;46.850;7.578;2023-05-10T05:01:48;95073.16;;;10.53;53.02
77871;BME280;67067;46.850;7.578;2023-05-10T05:02:50;95079.00;;;10.56;53.41
77871;BME280;67067;46.850;7.578;2023-05-10T05:03:51;95072.66;;;10.57;53.56
77871;BME280;67067;46.850;7.578;2023-05-10T05:04:55;95083.78;;;10.59;53.61
77871;BME280;67067;46.850;7.578;2023-05-10T05:05:57;95075.09;;;10.63;53.59
77871;BME280;67067;46.850;7.578;2023-05-10T05:06:58;95078.53;;;10.64;53.23
77871;BME280;67067;46.850;7.578;2023-05-10T05:08:00;95075.91;;;10.69;53.26
77871;BME280;67067;46.850;7.578;2023-05-10T05:09:02;95074.31;;;10.68;53.32
77871;BME280;67067;46.850;7.578;2023-05-10T05:10:09;95082.25;;;10.68;53.29
77871;BME280;67067;46.850;7.578;2023-05-10T05:11:13;95077.78;;;10.74;53.51
77871;BME280;67067;46.850;7.578;2023-05-10T05:12:14;95079.09;;;10.71;54.18
77871;BME280;67067;46.850;7.578;2023-05-10T05:13:16;95082.56;;;10.77;53.71
77871;BME280;67067;46.850;7.578;2023-05-10T05:14:18;95080.19;;;10.75;53.20
77871;BME280;67067;46.850;7.578;2023-05-10T05:15:22;95087.53;;;10.68;53.01
77871;BME280;67067;46.850;7.578;2023-05-10T05:16:23;95085.69;;;10.63;52.30
77871;BME280;67067;46.850;7.578;2023-05-10T05:17:25;95082.19;;;10.58;53.21
77871;BME280;67067;46.850;7.578;2023-05-10T05:18:26;95091.25;;;10.67;53.22
77871;BME280;67067;46.850;7.578;2023-05-10T05:19:28;95092.09;;;10.73;53.11
77871;BME280;67067;46.850;7.578;2023-05-10T05:20:34;95088.63;;;10.72;52.84
77871;BME280;67067;46.850;7.578;2023-05-10T05:21:38;95096.31;;;10.74;52.37
77871;BME280;67067;46.850;7.578;2023-05-10T05:22:41;95089.97;;;10.75;52.46
77871;BME280;67067;46.850;7.578;2023-05-10T05:23:45;95093.44;;;10.75;52.46
77871;BME280;67067;46.850;7.578;2023-05-10T05:24:46;95096.63;;;10.77;51.78
77871;BME280;67067;46.850;7.578;2023-05-10T05:25:48;95099.53;;;10.81;51.99
77871;BME280;67067;46.850;7.578;2023-05-10T05:26:49;95098.50;;;10.82;51.80
77871;BME280;67067;46.850;7.578;2023-05-10T05:27:51;95101.41;;;10.80;52.00
77871;BME280;67067;46.850;7.578;2023-05-10T05:28:52;95101.91;;;10.77;51.38
77871;BME280;67067;46.850;7.578;2023-05-10T05:29:56;95102.91;;;10.71;51.45
77871;BME280;67067;46.850;7.578;2023-05-10T05:30:57;95102.84;;;10.61;51.49
77871;BME280;67067;46.850;7.578;2023-05-10T05:31:59;95109.88;;;10.45;51.12
77871;BME280;67067;46.850;7.578;2023-05-10T05:33:01;95108.66;;;10.58;51.60
77871;BME280;67067;46.850;7.578;2023-05-10T05:34:02;95115.53;;;10.59;51.52
77871;BME280;67067;46.850;7.578;2023-05-10T05:35:04;95105.00;;;10.64;51.28
77871;BME280;67067;46.850;7.578;2023-05-10T05:36:07;95110.25;;;10.59;50.87
77871;BME280;67067;46.850;7.578;2023-05-10T05:37:12;95115.50;;;10.53;50.30
77871;BME280;67067;46.850;7.578;2023-05-10T05:38:13;95111.72;;;10.44;50.20
77871;BME280;67067;46.850;7.578;2023-05-10T05:39:15;95113.06;;;10.47;49.68
77871;BME280;67067;46.850;7.578;2023-05-10T05:40:19;95113.91;;;10.52;50.00
77871;BME280;67067;46.850;7.578;2023-05-10T05:41:21;95112.66;;;10.60;49.78
77871;BME280;67067;46.850;7.578;2023-05-10T05:42:23;95115.31;;;10.60;49.95
77871;BME280;67067;46.850;7.578;2023-05-10T05:43:25;95124.03;;;10.61;49.48
77871;BME280;67067;46.850;7.578;2023-05-10T05:44:26;95104.38;;;10.51;49.33
77871;BME280;67067;46.850;7.578;2023-05-10T05:45:30;95110.09;;;10.43;49.55
77871;BME280;67067;46.850;7.578;2023-05-10T05:46:31;95118.59;;;10.45;49.80
77871;BME280;67067;46.850;7.578;2023-05-10T05:47:33;95124.94;;;10.44;50.22
77871;BME280;67067;46.850;7.578;2023-05-10T05:48:37;95130.28;;;10.49;50.32
77871;BME280;67067;46.850;7.578;2023-05-10T05:49:38;95128.75;;;10.53;49.79
77871;BME280;67067;46.850;7.578;2023-05-10T05:50:40;95129.25;;;10.50;49.54
77871;BME280;67067;46.850;7.578;2023-05-10T05:51:42;95126.88;;;10.49;49.54
77871;BME280;67067;46.850;7.578;2023-05-10T05:52:46;95136.84;;;10.42;50.42
77871;BME280;67067;46.850;7.578;2023-05-10T05:53:47;95128.91;;;10.42;50.51
77871;BME280;67067;46.850;7.578;2023-05-10T05:54:49;95130.00;;;10.46;50.21
77871;BME280;67067;46.850;7.578;2023-05-10T05:55:51;95130.56;;;10.48;50.17